Time;durP1;ratioP1;P1;durP2;ratioP2;P2;SDS_P1;SDS_P2;PMS_P1;PMS_P2;Temp;Humidity;BMP_temperature;BMP_pressure;BME280_temperature;BME280_humidity;BME280_pressure;Samples;Min_cycle;Max_cycle;Signal;HPM_P1;HPM_P2
2021/06/13 00:00:16;;;;;;;12.23;6.35;;;;;;;16.15;90.44;100040.94;1709039;84;21433;-57
2021/06/13 00:03:20;;;;;;;7.40;6.60;;;;;;;16.12;90.43;100031.72;1709072;84;21776;-57
2021/06/13 00:06:26;;;;;;;9.88;6.42;;;;;;;16.09;90.45;100030.75;1709137;84;21259;-56
2021/06/13 00:09:32;;;;;;;9.50;7.12;;;;;;;16.08;90.69;100029.06;1709073;84;21389;-55
2021/06/13 00:12:37;;;;;;;9.15;6.35;;;;;;;16.06;90.66;100027.05;1709231;84;21279;-55
2021/06/13 00:15:43;;;;;;;9.83;6.97;;;;;;;16.05;90.73;100023.98;1709151;84;21243;-56
2021/06/13 00:18:49;;;;;;;8.90;7.05;;;;;;;16.04;90.77;100025.06;1709041;84;21402;-55
2021/06/13 00:21:57;;;;;;;12.98;6.70;;;;;;;16.05;90.73;100018.46;1709066;84;21275;-56
2021/06/13 00:25:03;;;;;;;8.00;6.45;;;;;;;16.02;90.28;100018.91;1709021;84;21381;-56
2021/06/13 00:28:08;;;;;;;10.80;7.58;;;;;;;15.99;90.11;100017.97;1709095;84;21220;-56
2021/06/13 00:31:13;;;;;;;9.40;8.00;;;;;;;15.97;90.24;100020.09;1709104;84;21373;-55
2021/06/13 00:34:21;;;;;;;11.08;8.20;;;;;;;15.97;90.33;100016.47;1709130;84;21243;-55
2021/06/13 00:37:30;;;;;;;9.48;7.65;;;;;;;15.97;90.51;100011.81;1713346;83;21220;-55
2021/06/13 00:40:37;;;;;;;13.83;7.08;;;;;;;15.97;90.52;100006.28;1713533;83;21247;-55
2021/06/13 00:43:47;;;;;;;12.23;7.72;;;;;;;15.96;90.42;100007.89;1713305;83;21227;-56
2021/06/13 00:46:52;;;;;;;12.15;7.83;;;;;;;15.93;90.24;99997.29;1713612;83;21271;-56
2021/06/13 00:49:59;;;;;;;10.30;8.03;;;;;;;15.89;90.25;99989.11;1713365;83;21247;-56
2021/06/13 00:53:10;;;;;;;10.75;8.38;;;;;;;15.87;90.19;99996.80;1713462;83;21433;-55
2021/06/13 00:56:17;;;;;;;12.88;8.03;;;;;;;15.84;90.38;99991.16;1713655;83;21890;-56
2021/06/13 00:59:25;;;;;;;11.35;8.38;;;;;;;15.82;90.46;99993.31;1699591;83;21389;-56
2021/06/13 01:02:31;;;;;;;11.40;7.75;;;;;;;15.79;90.20;99988.20;1713192;83;21235;-56
2021/06/13 01:05:38;;;;;;;10.60;7.50;;;;;;;15.75;90.06;99985.58;1713584;83;21223;-55
2021/06/13 01:08:56;;;;;;;16.57;9.30;;;;;;;15.70;89.92;99986.77;1713397;84;21436;-55
2021/06/13 01:12:05;;;;;;;10.15;8.05;;;;;;;15.68;90.09;99984.75;1713353;84;21196;-54
2021/06/13 01:15:20;;;;;;;14.18;8.70;;;;;;;15.68;90.25;99987.50;1709413;83;21347;-55
2021/06/13 01:18:39;;;;;;;13.43;9.60;;;;;;;15.67;90.39;99981.69;1712764;83;21522;-55
2021/06/13 01:22:06;;;;;;;15.68;9.78;;;;;;;15.65;90.32;99976.91;1712981;83;21180;-55
2021/06/13 01:25:34;;;;;;;10.30;8.83;;;;;;;15.64;90.28;99973.84;1712810;83;21369;-54
2021/06/13 01:29:09;;;;;;;15.65;9.45;;;;;;;15.63;90.28;99974.06;1712713;83;21180;-54
2021/06/13 01:32:19;;;;;;;11.48;9.00;;;;;;;15.60;90.27;99971.19;1712670;83;21195;-54
2021/06/13 01:35:29;;;;;;;16.12;9.13;;;;;;;15.60;90.43;99965.67;1712336;83;21892;-55
2021/06/13 01:38:35;;;;;;;11.73;8.55;;;;;;;15.58;90.39;99961.45;1676467;85;21378;-55
2021/06/13 01:41:42;;;;;;;13.60;8.88;;;;;;;15.56;90.42;99963.05;1676689;85;21350;-56
2021/06/13 01:44:51;;;;;;;13.58;9.78;;;;;;;15.54;90.35;99962.41;1676561;85;21379;-55
2021/06/13 01:47:57;;;;;;;13.60;10.03;;;;;;;15.52;90.37;99962.33;1676659;85;21240;-56
2021/06/13 01:51:03;;;;;;;13.48;10.18;;;;;;;15.51;90.39;99966.98;1676189;85;21386;-56
2021/06/13 01:54:08;;;;;;;17.70;9.53;;;;;;;15.51;90.56;99959.23;1663377;85;21824;-55
2021/06/13 01:57:14;;;;;;;16.07;10.53;;;;;;;15.52;90.62;99959.05;1676227;85;21339;-55
2021/06/13 02:00:28;;;;;;;16.12;9.85;;;;;;;15.55;90.68;99953.61;1677194;85;21220;-55
2021/06/13 02:03:35;;;;;;;11.50;9.38;;;;;;;15.54;90.60;99951.93;1676586;85;21251;-55
2021/06/13 02:06:59;;;;;;;14.43;10.00;;;;;;;15.54;90.51;99954.14;1663281;85;21232;-55
2021/06/13 02:10:05;;;;;;;12.78;9.33;;;;;;;15.57;90.75;99952.31;1676898;85;21410;-55
2021/06/13 02:13:14;;;;;;;16.95;9.98;;;;;;;15.59;90.65;99954.33;1676897;85;21213;-55
2021/06/13 02:16:22;;;;;;;12.82;9.68;;;;;;;15.61;90.66;99952.20;1676746;85;21410;-55
2021/06/13 02:19:30;;;;;;;13.78;9.53;;;;;;;15.67;90.84;99950.47;1664138;85;21248;-55
2021/06/13 02:22:37;;;;;;;15.63;9.35;;;;;;;15.72;90.93;99936.34;1677669;85;21459;-54
2021/06/13 02:25:44;;;;;;;13.72;9.43;;;;;;;15.75;90.88;99940.05;1676772;85;21402;-57
2021/06/13 02:28:53;;;;;;;13.75;9.25;;;;;;;15.78;90.86;99925.80;1677120;85;21322;-56
2021/06/13 02:31:59;;;;;;;13.60;9.95;;;;;;;15.81;90.88;99927.29;1676774;85;21378;-55
2021/06/13 02:35:07;;;;;;;14.03;9.33;;;;;;;15.85;91.21;99931.28;1676821;85;21386;-57
2021/06/13 02:38:13;;;;;;;12.63;9.53;;;;;;;15.90;91.22;99940.58;1699043;82;21606;-55
2021/06/13 02:41:21;;;;;;;14.00;8.98;;;;;;;15.95;91.30;99938.01;1686140;85;21275;-56
2021/06/13 02:44:28;;;;;;;11.25;8.73;;;;;;;16.02;91.43;99936.59;1716851;83;21223;-55
2021/06/13 02:47:35;;;;;;;11.83;8.90;;;;;;;16.06;91.50;99937.30;1686641;85;21376;-55
2021/06/13 02:50:41;;;;;;;13.03;9.43;;;;;;;16.12;91.68;99939.20;1717142;83;21381;-56
2021/06/13 02:53:54;;;;;;;12.65;9.55;;;;;;;16.19;91.74;99937.23;1716743;83;21216;-56
2021/06/13 02:57:06;;;;;;;25.17;9.30;;;;;;;16.26;91.76;99935.80;1686077;85;21360;-55
2021/06/13 03:00:16;;;;;;;14.40;8.98;;;;;;;16.32;91.79;99939.91;1717076;83;21226;-55
2021/06/13 03:03:22;;;;;;;12.03;9.88;;;;;;;16.39;91.97;99931.57;1716562;83;21274;-56
2021/06/13 03:06:28;;;;;;;14.28;9.95;;;;;;;16.48;92.13;99943.20;1686445;85;21388;-55
2021/06/13 03:09:37;;;;;;;16.17;8.83;;;;;;;16.55;92.18;99950.39;1717007;83;21250;-55
2021/06/13 03:12:45;;;;;;;12.23;8.18;;;;;;;16.62;92.10;99945.64;1716762;83;21223;-55
2021/06/13 03:15:51;;;;;;;20.20;7.92;;;;;;;16.69;91.90;99950.59;1686764;85;21262;-55
2021/06/13 03:18:56;;;;;;;16.52;8.70;;;;;;;16.76;91.66;99947.77;1716809;83;21216;-56
2021/06/13 03:22:01;;;;;;;15.60;9.33;;;;;;;16.83;91.50;99940.25;1663047;85;21246;-56
2021/06/13 03:25:07;;;;;;;12.23;9.90;;;;;;;16.92;91.19;99939.73;1691099;84;21284;-57
2021/06/13 03:28:12;;;;;;;15.23;10.50;;;;;;;16.97;90.35;99941.81;1719632;83;21221;-57
2021/06/13 03:31:21;;;;;;;18.50;10.18;;;;;;;17.04;89.58;99945.38;1670074;85;21250;-57
2021/06/13 03:34:27;;;;;;;12.75;8.88;;;;;;;17.10;88.78;99936.16;1686630;85;21238;-57
2021/06/13 03:37:33;;;;;;;15.75;9.10;;;;;;;17.20;88.01;99939.25;1716846;83;21346;-56
2021/06/13 03:40:40;;;;;;;12.15;9.25;;;;;;;17.28;87.29;99938.95;1677471;85;21293;-56
2021/06/13 03:43:47;;;;;;;15.40;8.23;;;;;;;17.37;86.51;99934.27;1691009;84;21729;-58
2021/06/13 03:46:52;;;;;;;14.00;8.55;;;;;;;17.47;85.81;99937.91;1719546;83;21206;-56
2021/06/13 03:49:58;;;;;;;12.53;7.83;;;;;;;17.56;85.09;99937.89;1699007;83;21242;-57
2021/06/13 03:53:04;;;;;;;13.55;7.70;;;;;;;17.65;84.56;99937.34;1716706;83;21212;-57
2021/06/13 03:56:12;;;;;;;13.35;7.20;;;;;;;17.74;84.18;99940.09;1686030;85;21416;-58
2021/06/13 03:59:19;;;;;;;9.75;6.95;;;;;;;17.83;83.68;99945.64;1717040;83;21226;-57
2021/06/13 04:02:24;;;;;;;21.23;7.53;;;;;;;17.92;83.06;99941.99;1716866;83;21196;-57
2021/06/13 04:05:31;;;;;;;11.10;6.75;;;;;;;18.00;82.33;99945.00;1686304;85;21381;-59
2021/06/13 04:08:37;;;;;;;11.43;7.45;;;;;;;18.07;81.60;99947.12;1716661;83;21767;-58
2021/06/13 04:11:42;;;;;;;9.95;6.92;;;;;;;18.14;81.20;99941.78;1716925;83;21329;-58
2021/06/13 04:14:50;;;;;;;8.93;6.62;;;;;;;18.22;80.80;99942.84;1698674;83;21219;-58
2021/06/13 04:17:55;;;;;;;12.95;6.78;;;;;;;18.31;80.55;99944.21;1686680;85;21425;-57
2021/06/13 04:21:03;;;;;;;10.53;7.15;;;;;;;18.40;80.23;99942.81;1717187;83;21392;-57
2021/06/13 04:24:10;;;;;;;10.90;6.67;;;;;;;18.48;80.01;99940.23;1716832;83;21686;-57
2021/06/13 04:27:17;;;;;;;13.65;6.00;;;;;;;18.57;79.63;99937.41;1686475;85;21337;-57
2021/06/13 04:30:23;;;;;;;9.88;6.47;;;;;;;18.65;79.43;99942.08;1717127;83;21890;-57
2021/06/13 04:33:28;;;;;;;10.95;6.47;;;;;;;18.77;79.31;99940.19;1698640;83;21767;-57
2021/06/13 04:36:34;;;;;;;11.50;6.87;;;;;;;18.87;79.25;99935.40;1717130;83;21392;-56
2021/06/13 04:39:42;;;;;;;9.60;6.35;;;;;;;18.96;79.04;99941.73;1717192;81;21264;-56
2021/06/13 04:42:47;;;;;;;11.60;6.20;;;;;;;19.05;79.06;99932.52;1712733;84;21207;-58
2021/06/13 04:45:53;;;;;;;9.90;6.35;;;;;;;19.14;78.90;99938.00;1705975;84;21242;-57
2021/06/13 04:48:59;;;;;;;8.88;6.40;;;;;;;19.22;78.34;99938.48;1712860;84;21867;-57
2021/06/13 04:52:05;;;;;;;7.40;6.17;;;;;;;19.30;78.00;99937.30;1713345;84;21271;-57
2021/06/13 04:55:35;;;;;;;7.62;6.05;;;;;;;19.37;77.61;99937.17;1712842;84;21397;-57
2021/06/13 04:58:40;;;;;;;7.80;6.25;;;;;;;19.47;77.63;99938.80;1713078;84;21586;-56
2021/06/13 05:01:46;;;;;;;11.12;6.55;;;;;;;19.56;77.54;99935.94;1713049;84;21251;-57
2021/06/13 05:04:53;;;;;;;8.50;6.08;;;;;;;19.65;77.73;99935.31;1712986;84;21374;-56
2021/06/13 05:07:59;;;;;;;8.48;6.15;;;;;;;19.78;77.79;99938.34;1713017;84;21330;-57
2021/06/13 05:11:08;;;;;;;7.80;5.75;;;;;;;19.88;77.92;99932.48;1713463;84;21247;-58
2021/06/13 05:14:15;;;;;;;9.10;5.28;;;;;;;19.99;77.58;99936.30;1713343;84;21844;-57
2021/06/13 05:17:22;;;;;;;7.45;5.65;;;;;;;20.11;77.42;99935.69;1713384;84;21352;-58
2021/06/13 05:20:28;;;;;;;9.58;5.97;;;;;;;20.22;77.37;99933.43;1713392;84;21373;-56
2021/06/13 05:23:34;;;;;;;9.20;5.92;;;;;;;20.32;77.64;99934.48;1713365;84;21215;-57
2021/06/13 05:26:40;;;;;;;9.25;6.40;;;;;;;20.45;78.07;99929.16;1713467;84;21219;-58
2021/06/13 05:29:46;;;;;;;7.75;6.25;;;;;;;20.57;78.40;99918.79;1713223;84;21385;-56
2021/06/13 05:32:52;;;;;;;8.63;5.53;;;;;;;20.67;78.43;99918.44;1713451;84;21212;-56
2021/06/13 05:36:01;;;;;;;10.15;6.62;;;;;;;20.78;77.46;99923.61;1713354;84;21386;-56
2021/06/13 05:39:07;;;;;;;12.00;6.65;;;;;;;20.89;77.32;99921.83;1713268;84;21401;-55
2021/06/13 05:42:13;;;;;;;7.55;6.03;;;;;;;21.00;78.13;99920.38;1712457;82;21338;-55
2021/06/13 05:45:19;;;;;;;6.28;5.58;;;;;;;21.11;78.12;99920.83;1713432;84;21421;-57
2021/06/13 05:48:24;;;;;;;8.23;5.50;;;;;;;21.22;77.50;99927.38;1713410;84;21350;-57
2021/06/13 05:51:29;;;;;;;8.53;4.78;;;;;;;21.30;77.46;99925.02;1713412;84;21223;-56
2021/06/13 05:54:39;;;;;;;7.17;5.10;;;;;;;21.37;76.18;99926.23;1713296;84;21346;-57
2021/06/13 05:57:44;;;;;;;6.28;5.10;;;;;;;21.43;75.56;99923.26;1713377;84;21851;-57
2021/06/13 06:00:52;;;;;;;13.03;5.47;;;;;;;21.52;75.77;99930.60;1713090;84;21425;-58
2021/06/13 06:03:58;;;;;;;6.25;4.78;;;;;;;21.59;75.41;99923.77;1712959;84;21362;-58
2021/06/13 06:07:04;;;;;;;9.80;4.87;;;;;;;21.66;74.95;99920.22;1713250;84;21235;-58
2021/06/13 06:10:09;;;;;;;7.42;5.08;;;;;;;21.75;74.48;99917.83;1713453;84;21260;-57
2021/06/13 06:13:17;;;;;;;9.65;5.58;;;;;;;21.80;74.29;99920.14;1713516;84;21708;-57
2021/06/13 06:16:24;;;;;;;5.17;4.10;;;;;;;21.86;73.69;99920.52;1713422;84;21240;-56
2021/06/13 06:19:30;;;;;;;7.65;4.92;;;;;;;21.95;74.60;99928.70;1713521;84;21252;-57
2021/06/13 06:22:35;;;;;;;6.58;4.25;;;;;;;22.06;75.02;99919.36;1692131;84;21220;-56
2021/06/13 06:25:40;;;;;;;6.17;4.87;;;;;;;22.16;74.47;99922.27;1689872;85;21298;-56
2021/06/13 06:28:47;;;;;;;9.78;4.65;;;;;;;22.21;73.02;99916.72;1684692;85;21241;-57
2021/06/13 06:31:53;;;;;;;6.50;4.65;;;;;;;22.29;72.76;99918.76;1690428;85;21406;-57
2021/06/13 06:34:59;;;;;;;7.50;4.95;;;;;;;22.35;72.64;99916.30;1684608;85;21243;-56
2021/06/13 06:38:06;;;;;;;7.62;4.47;;;;;;;22.45;73.52;99916.42;1690495;85;21234;-56
2021/06/13 06:41:11;;;;;;;6.70;5.00;;;;;;;22.50;72.53;99924.84;1684720;85;21239;-56
2021/06/13 06:44:16;;;;;;;7.12;4.30;;;;;;;22.57;72.00;99922.69;1679536;84;21243;-57
2021/06/13 06:47:23;;;;;;;9.68;4.65;;;;;;;22.64;71.49;99919.99;1666038;86;21279;-57
2021/06/13 06:50:30;;;;;;;5.87;4.35;;;;;;;22.70;71.34;99920.86;1666487;86;21401;-57
2021/06/13 06:53:35;;;;;;;7.15;4.83;;;;;;;22.77;71.51;99923.71;1665335;86;21345;-58
2021/06/13 06:56:41;;;;;;;9.20;4.62;;;;;;;22.84;71.19;99916.52;1666810;86;21354;-58
2021/06/13 06:59:48;;;;;;;6.37;5.22;;;;;;;22.92;70.80;99915.47;1666354;86;21283;-57
2021/06/13 07:02:53;;;;;;;9.25;4.78;;;;;;;22.98;70.41;99921.92;1666491;86;21243;-57
2021/06/13 07:06:01;;;;;;;4.92;4.28;;;;;;;23.06;70.40;99914.45;1666397;86;21441;-56
2021/06/13 07:09:07;;;;;;;5.95;4.40;;;;;;;23.13;70.17;99915.07;1665857;86;21400;-56
2021/06/13 07:12:14;;;;;;;5.53;4.53;;;;;;;23.20;69.02;99922.64;1666539;86;21397;-56
2021/06/13 07:15:24;;;;;;;6.33;4.17;;;;;;;23.27;68.52;99919.10;1666594;86;21328;-56
2021/06/13 07:18:29;;;;;;;11.60;5.00;;;;;;;23.32;68.42;99918.59;1665894;86;21223;-57
2021/06/13 07:21:35;;;;;;;6.90;4.50;;;;;;;23.40;67.91;99915.84;1664600;86;21377;-56
2021/06/13 07:24:40;;;;;;;7.58;4.40;;;;;;;23.47;68.36;99913.08;1664686;86;21389;-56
2021/06/13 07:27:47;;;;;;;11.15;4.47;;;;;;;23.54;68.36;99907.25;1666717;86;21235;-57
2021/06/13 07:30:52;;;;;;;6.28;4.08;;;;;;;23.60;66.83;99908.41;1661430;86;21258;-56
2021/06/13 07:33:59;;;;;;;5.95;4.28;;;;;;;23.67;66.28;99901.72;1664092;86;21892;-56
2021/06/13 07:37:06;;;;;;;4.75;4.05;;;;;;;23.77;67.13;99916.57;1664525;86;21241;-57
2021/06/13 07:40:13;;;;;;;6.17;4.42;;;;;;;23.86;65.99;99914.09;1663620;86;21265;-57
2021/06/13 07:43:18;;;;;;;6.58;4.78;;;;;;;23.96;65.73;99905.77;1664913;83;21269;-59
2021/06/13 07:46:26;;;;;;;5.83;4.70;;;;;;;24.06;65.13;99909.45;1709122;84;21273;-57
2021/06/13 07:49:32;;;;;;;6.30;4.65;;;;;;;24.15;64.75;99904.99;1708913;84;21376;-57
2021/06/13 07:52:39;;;;;;;5.78;4.22;;;;;;;24.26;64.92;99907.28;1708011;84;21277;-58
2021/06/13 07:55:46;;;;;;;8.00;4.40;;;;;;;24.34;63.82;99907.55;1691011;84;21313;-56
2021/06/13 07:58:52;;;;;;;8.13;4.12;;;;;;;24.40;62.33;99909.81;1708612;84;21348;-57
2021/06/13 08:01:58;;;;;;;6.60;3.98;;;;;;;24.43;61.72;99905.06;1700531;84;21297;-57
2021/06/13 08:05:07;;;;;;;6.45;4.75;;;;;;;24.52;62.28;99899.19;1708378;82;21427;-57
2021/06/13 08:08:12;;;;;;;8.00;5.28;;;;;;;24.54;61.44;99896.95;1709084;84;21309;-57
2021/06/13 08:11:21;;;;;;;6.50;4.83;;;;;;;24.55;61.20;99900.88;1708865;82;21225;-56
2021/06/13 08:14:28;;;;;;;6.53;4.90;;;;;;;24.67;61.65;99893.65;1708728;82;21249;-56
2021/06/13 08:17:32;;;;;;;5.80;4.45;;;;;;;24.83;61.46;99892.53;1709135;84;21696;-57
2021/06/13 08:20:40;;;;;;;7.40;4.05;;;;;;;25.03;61.45;99889.16;1708604;82;21396;-57
2021/06/13 08:23:50;;;;;;;6.97;3.95;;;;;;;25.11;60.56;99888.28;1708843;84;21255;-57
2021/06/13 08:26:54;;;;;;;5.28;4.00;;;;;;;25.12;58.96;99890.80;1708532;84;21731;-57
2021/06/13 08:30:00;;;;;;;6.10;3.80;;;;;;;25.15;58.67;99876.22;1681230;84;21289;-57
2021/06/13 08:33:06;;;;;;;6.45;4.47;;;;;;;25.29;56.73;99883.50;1708448;84;21229;-58
2021/06/13 08:36:12;;;;;;;9.93;4.42;;;;;;;25.37;56.23;99875.95;1708698;84;21388;-57
2021/06/13 08:39:17;;;;;;;5.33;4.20;;;;;;;25.48;56.70;99878.99;1708895;84;21265;-56
2021/06/13 08:42:24;;;;;;;5.60;4.30;;;;;;;25.61;56.15;99874.19;1709057;84;21230;-59
2021/06/13 08:45:30;;;;;;;5.22;3.62;;;;;;;25.69;54.69;99877.80;1700809;84;21219;-57
2021/06/13 08:48:37;;;;;;;5.00;3.65;;;;;;;25.71;54.77;99871.32;1695445;84;21215;-58
2021/06/13 08:51:45;;;;;;;9.05;3.83;;;;;;;25.72;54.25;99861.22;1667892;86;21263;-57
2021/06/13 08:54:51;;;;;;;5.05;3.40;;;;;;;25.78;55.61;99863.45;1689696;85;21388;-57
2021/06/13 08:57:58;;;;;;;10.15;4.03;;;;;;;25.87;54.70;99854.70;1684605;85;21294;-56
2021/06/13 09:01:09;;;;;;;6.87;4.20;;;;;;;25.96;54.81;99848.75;1686651;85;21779;-55
2021/06/13 09:04:16;;;;;;;5.58;3.58;;;;;;;26.11;54.50;99840.30;1682887;85;21973;-57
2021/06/13 09:07:29;;;;;;;4.42;3.40;;;;;;;26.32;54.37;99844.05;1704996;84;21705;-57
2021/06/13 09:10:38;;;;;;;6.17;3.08;;;;;;;26.52;52.76;99834.66;1706319;83;21220;-58
2021/06/13 09:13:49;;;;;;;5.97;3.12;;;;;;;26.69;51.97;99833.69;1693659;84;21200;-55
2021/06/13 09:16:53;;;;;;;5.47;3.42;;;;;;;26.82;52.29;99827.39;1670917;83;21205;-57
2021/06/13 09:20:27;;;;;;;5.80;3.30;;;;;;;26.95;52.14;99827.27;1708367;84;21808;-57
2021/06/13 09:23:35;;;;;;;11.70;4.12;;;;;;;26.99;50.92;99824.15;1706479;84;21208;-59
2021/06/13 09:26:41;;;;;;;7.62;3.62;;;;;;;26.96;50.71;99831.18;1712498;83;21248;-56
2021/06/13 09:30:00;;;;;;;4.30;3.37;;;;;;;26.93;51.08;99828.97;1709018;84;21232;-56
2021/06/13 09:33:26;;;;;;;4.67;3.15;;;;;;;26.88;50.82;99827.61;1712145;83;21235;-56
2021/06/13 09:36:40;;;;;;;6.37;3.35;;;;;;;26.88;50.16;99830.42;1686128;84;22019;-56
2021/06/13 09:39:46;;;;;;;4.40;3.05;;;;;;;26.89;49.90;99827.05;1684590;85;21286;-55
2021/06/13 09:42:54;;;;;;;3.30;2.55;;;;;;;26.88;48.96;99820.59;1665677;85;21226;-56
2021/06/13 09:46:18;;;;;;;6.47;3.20;;;;;;;26.88;49.04;99815.55;1661394;85;21777;-56
2021/06/13 09:49:24;;;;;;;4.42;2.60;;;;;;;26.88;49.40;99823.39;1684169;85;21231;-57
2021/06/13 09:52:37;;;;;;;6.33;3.22;;;;;;;26.88;49.29;99812.16;1706567;84;21243;-57
2021/06/13 09:55:43;;;;;;;6.17;3.00;;;;;;;26.90;48.40;99809.90;1707592;84;21765;-57
2021/06/13 09:59:23;;;;;;;7.08;3.10;;;;;;;27.01;49.87;99812.02;1712371;84;21199;-57
2021/06/13 10:02:34;;;;;;;7.00;3.00;;;;;;;27.06;49.08;99807.20;1712950;84;21224;-57
2021/06/13 10:05:39;;;;;;;4.53;2.90;;;;;;;27.24;49.28;99802.79;1713012;84;21899;-57
2021/06/13 10:08:47;;;;;;;9.58;3.17;;;;;;;27.33;48.77;99799.05;1712673;84;21382;-58
2021/06/13 10:11:56;;;;;;;5.00;3.17;;;;;;;27.33;47.97;99797.64;1684402;85;21203;-57
2021/06/13 10:15:01;;;;;;;6.83;5.58;;;;;;;27.44;47.56;99792.16;1684087;85;21223;-56
2021/06/13 10:18:20;;;;;;;5.95;3.08;;;;;;;27.56;48.26;99786.94;1684194;85;21196;-56
2021/06/13 10:21:25;;;;;;;4.12;3.00;;;;;;;27.60;48.33;99783.80;1684050;85;21788;-56
2021/06/13 10:24:34;;;;;;;5.28;3.10;;;;;;;27.59;47.23;99793.95;1684050;85;21310;-58
2021/06/13 10:27:38;;;;;;;4.25;2.40;;;;;;;27.31;47.66;99792.03;1684209;85;21223;-57
2021/06/13 10:30:46;;;;;;;4.75;2.80;;;;;;;26.80;47.35;99790.33;1665801;85;21240;-57
2021/06/13 10:33:51;;;;;;;4.83;2.58;;;;;;;26.38;48.53;99801.36;1684578;85;21288;-58
2021/06/13 10:36:58;;;;;;;3.60;2.87;;;;;;;26.08;48.53;99798.79;1684738;85;21244;-57
2021/06/13 10:40:04;;;;;;;6.15;3.25;;;;;;;25.85;49.35;99799.45;1684929;85;21251;-58
2021/06/13 10:43:13;;;;;;;3.70;2.80;;;;;;;25.79;51.21;99796.41;1685077;85;21231;-57
2021/06/13 10:46:23;;;;;;;8.48;3.20;;;;;;;25.89;52.05;99793.55;1684739;85;21212;-59
2021/06/13 10:49:38;;;;;;;8.03;3.15;;;;;;;25.93;51.74;99789.88;1688019;85;21773;-58
2021/06/13 10:52:45;;;;;;;4.17;2.83;;;;;;;26.01;51.06;99787.89;1672716;86;21745;-58
2021/06/13 10:56:02;;;;;;;4.00;2.90;;;;;;;26.33;50.06;99798.59;1687933;85;21264;-58
2021/06/13 10:59:08;;;;;;;5.80;2.92;;;;;;;26.66;49.25;99789.34;1685323;85;21783;-56
2021/06/13 11:02:33;;;;;;;5.75;2.47;;;;;;;26.99;47.81;99781.41;1663440;83;21232;-57
2021/06/13 11:05:50;;;;;;;3.08;2.70;;;;;;;27.35;47.32;99788.32;1716536;83;21376;-58
2021/06/13 11:09:13;;;;;;;4.42;2.67;;;;;;;27.63;48.06;99791.63;1715783;83;21502;-57
2021/06/13 11:12:50;;;;;;;6.08;2.75;;;;;;;27.64;48.91;99786.27;1716047;83;21278;-57
2021/06/13 11:16:02;;;;;;;3.50;2.60;;;;;;;27.57;47.67;99802.69;1696652;83;21772;-56
2021/06/13 11:19:36;;;;;;;6.85;2.90;;;;;;;27.40;47.09;99805.13;1716831;83;21799;-56
2021/06/13 11:22:44;;;;;;;2.75;2.15;;;;;;;27.21;46.18;99795.77;1716188;83;21291;-58
2021/06/13 11:25:53;;;;;;;2.80;1.98;;;;;;;26.85;46.16;99811.34;1716243;83;21293;-55
2021/06/13 11:28:59;;;;;;;3.50;2.55;;;;;;;26.39;46.48;99835.31;1716726;83;21266;-57
2021/06/13 11:32:06;;;;;;;11.00;3.72;;;;;;;25.86;49.16;99838.42;1717021;83;21961;-56
2021/06/13 11:35:35;;;;;;;6.15;3.37;;;;;;;25.36;53.66;99843.41;1716664;83;21278;-56
2021/06/13 11:38:43;;;;;;;6.55;3.50;;;;;;;24.95;57.20;99834.25;1716609;83;21861;-57
2021/06/13 11:41:51;;;;;;;9.15;3.90;;;;;;;24.54;59.36;99815.79;1716710;83;21305;-55
2021/06/13 11:44:59;;;;;;;6.35;4.05;;;;;;;24.21;60.83;99813.00;1719505;83;21794;-57
2021/06/13 11:48:26;;;;;;;12.80;5.10;;;;;;;23.88;63.33;99813.44;1716874;83;21223;-57
2021/06/13 11:51:32;;;;;;;12.82;4.92;;;;;;;23.57;64.46;99797.71;1708734;83;21239;-57
2021/06/13 11:54:48;;;;;;;9.50;4.50;;;;;;;23.32;66.67;99805.45;1699030;83;21235;-56
2021/06/13 11:57:56;;;;;;;9.43;4.47;;;;;;;23.18;68.85;99803.39;1706189;83;21401;-56
2021/06/13 12:01:01;;;;;;;6.83;4.95;;;;;;;23.12;70.92;99801.70;1708428;83;21306;-55
2021/06/13 12:04:12;;;;;;;11.78;5.00;;;;;;;23.18;72.93;99800.60;1705699;84;21389;-56
2021/06/13 12:07:21;;;;;;;5.62;3.98;;;;;;;23.41;73.74;99794.58;1708365;84;21847;-56
2021/06/13 12:10:32;;;;;;;11.85;6.20;;;;;;;23.82;73.67;99785.77;1705244;83;21255;-56
2021/06/13 12:13:36;;;;;;;9.00;5.00;;;;;;;24.28;71.89;99783.31;1703912;84;21724;-57
2021/06/13 12:16:43;;;;;;;12.90;5.33;;;;;;;24.62;69.91;99779.69;1709249;83;21355;-57
2021/06/13 12:20:00;;;;;;;6.87;4.37;;;;;;;24.95;70.07;99763.68;1709068;83;21590;-55
2021/06/13 12:23:11;;;;;;;6.92;3.33;;;;;;;25.33;67.71;99752.88;1680098;85;21216;-55
2021/06/13 12:29:39;;;;;;;4.67;2.55;;;;;;;26.18;61.79;99758.84;1680467;85;21248;-55
2021/06/13 12:32:47;;;;;;;3.65;2.95;;;;;;;26.57;59.31;99748.97;1698324;84;21848;-56
2021/06/13 12:35:55;;;;;;;4.42;2.90;;;;;;;26.77;57.62;99764.79;1709471;83;21437;-54
2021/06/13 12:39:01;;;;;;;8.45;5.05;;;;;;;26.78;57.43;99784.75;1706847;84;21410;-55
2021/06/13 12:42:21;;;;;;;4.35;2.90;;;;;;;26.58;57.91;99844.70;1707747;84;21352;-55
2021/06/13 12:45:28;;;;;;;5.92;2.90;;;;;;;26.11;57.55;99823.45;1708905;83;21382;-54
2021/06/13 12:48:34;;;;;;;6.28;3.33;;;;;;;25.42;58.53;99812.88;1709598;83;21240;-55
2021/06/13 12:51:43;;;;;;;6.83;3.33;;;;;;;24.85;59.54;99811.30;1711440;82;21939;-56
2021/06/13 12:54:55;;;;;;;6.45;2.72;;;;;;;24.40;59.72;99815.52;1709073;84;21366;-55
2021/06/13 12:58:01;;;;;;;8.08;2.70;;;;;;;24.04;59.93;99820.78;1708836;84;21362;-55
2021/06/13 13:01:07;;;;;;;4.37;2.17;;;;;;;23.70;60.64;99816.77;1708662;84;21227;-55
2021/06/13 13:04:15;;;;;;;3.47;2.17;;;;;;;23.42;60.69;99807.45;1674198;84;21195;-55
2021/06/13 13:07:36;;;;;;;4.35;2.12;;;;;;;23.15;61.72;99803.94;1708649;84;21918;-55
2021/06/13 13:10:41;;;;;;;3.47;2.20;;;;;;;22.89;62.96;99809.08;1708793;84;21231;-55
2021/06/13 13:13:48;;;;;;;5.08;2.12;;;;;;;22.62;63.87;99801.36;1709078;84;21275;-55
2021/06/13 13:16:54;;;;;;;4.45;2.15;;;;;;;22.38;64.65;99804.20;1709153;84;21243;-54
2021/06/13 13:19:59;;;;;;;4.37;2.00;;;;;;;22.15;64.49;99804.84;1709081;84;21374;-55
2021/06/13 13:23:06;;;;;;;5.97;2.15;;;;;;;21.98;63.92;99794.38;1709205;84;21344;-55
2021/06/13 13:26:14;;;;;;;6.85;2.60;;;;;;;21.85;64.00;99798.16;1709140;84;21263;-55
2021/06/13 13:29:20;;;;;;;5.75;2.15;;;;;;;21.78;64.31;99810.05;1709042;84;21248;-55
2021/06/13 13:32:25;;;;;;;4.42;2.42;;;;;;;21.68;65.22;99801.54;1709043;84;21414;-56
2021/06/13 13:35:42;;;;;;;7.53;2.92;;;;;;;21.57;66.14;99807.56;1709144;84;21330;-55
2021/06/13 13:38:56;;;;;;;4.47;2.98;;;;;;;21.47;67.00;99802.44;1709064;84;21366;-56
2021/06/13 13:42:13;;;;;;;6.95;3.52;;;;;;;21.33;67.66;99800.58;1709154;84;21918;-57
2021/06/13 13:45:29;;;;;;;4.75;3.05;;;;;;;21.25;69.60;99807.99;1704253;84;21386;-55
2021/06/13 13:48:35;;;;;;;5.83;3.62;;;;;;;21.18;70.09;99818.50;1688484;85;21360;-55
2021/06/13 13:51:52;;;;;;;8.75;3.37;;;;;;;21.16;70.65;99826.80;1665836;84;21264;-55
2021/06/13 13:55:13;;;;;;;5.05;3.42;;;;;;;21.16;71.04;99833.22;1664757;85;21235;-55
2021/06/13 13:58:18;;;;;;;6.67;3.52;;;;;;;21.15;71.91;99842.69;1664332;85;21807;-56
2021/06/13 14:01:24;;;;;;;5.50;3.62;;;;;;;21.20;72.62;99860.82;1662938;86;21339;-55
2021/06/13 14:04:32;;;;;;;8.70;4.80;;;;;;;21.24;73.05;99858.37;1690402;85;21257;-56
2021/06/13 14:07:38;;;;;;;5.70;3.42;;;;;;;21.29;74.18;99864.86;1709747;84;21386;-56
2021/06/13 14:10:44;;;;;;;4.45;3.75;;;;;;;21.32;75.24;99867.12;1712544;83;21227;-56
2021/06/13 14:13:52;;;;;;;7.33;3.67;;;;;;;21.37;75.02;99885.30;1713063;83;21276;-57
2021/06/13 14:17:00;;;;;;;9.15;3.90;;;;;;;21.41;74.53;99881.43;1710998;84;21421;-56
2021/06/13 14:20:06;;;;;;;7.58;3.27;;;;;;;21.42;75.15;99877.56;1712432;82;21228;-56
2021/06/13 14:23:12;;;;;;;6.37;3.37;;;;;;;21.47;74.80;99881.81;1698674;84;21188;-57
2021/06/13 14:26:20;;;;;;;5.60;3.40;;;;;;;21.55;74.68;99874.40;1712014;82;21234;-57
2021/06/13 14:29:26;;;;;;;4.92;3.22;;;;;;;21.62;74.86;99880.59;1712579;82;21374;-56
2021/06/13 14:32:33;;;;;;;7.75;3.58;;;;;;;21.67;74.76;99873.16;1718513;83;21400;-56
2021/06/13 14:35:40;;;;;;;7.62;4.50;;;;;;;21.69;74.83;99870.93;1691348;83;21231;-56
2021/06/13 14:38:45;;;;;;;6.67;3.98;;;;;;;21.68;75.06;99867.02;1706872;83;21218;-57
2021/06/13 14:41:51;;;;;;;8.05;4.08;;;;;;;21.64;74.83;99868.11;1686585;84;21219;-56
2021/06/13 14:44:57;;;;;;;10.13;4.25;;;;;;;21.63;74.72;99872.52;1684823;85;21282;-55